Time;durP1;ratioP1;P1;durP2;ratioP2;P2;SDS_P1;SDS_P2;PMS_P1;PMS_P2;Temp;Humidity;BMP_temperature;BMP_pressure;BME280_temperature;BME280_humidity;BME280_pressure;Samples;Min_cycle;Max_cycle;Signal;HPM_P1;HPM_P2
2021/04/23 00:00:48;;;;;;;21.48;3.92;;;9.40;98.90;;;;;;2086464;28;20521;-64
2021/04/23 00:01:49;;;;;;;17.50;4.10;;;9.40;98.90;;;;;;2086574;28;20037;-64
2021/04/23 00:02:53;;;;;;;15.88;3.95;;;9.40;99.00;;;;;;2094699;28;20029;-63
2021/04/23 00:03:58;;;;;;;9.00;3.42;;;9.40;99.00;;;;;;2082529;28;20649;-64
2021/04/23 00:04:58;;;;;;;16.10;4.15;;;9.40;98.90;;;;;;2078661;28;20030;-64
2021/04/23 00:06:26;;;;;;;13.63;4.25;;;9.30;99.00;;;;;;2079080;28;20045;-64
2021/04/23 00:07:27;;;;;;;13.50;3.88;;;9.30;99.00;;;;;;2079214;28;20071;-64
2021/04/23 00:08:27;;;;;;;23.95;4.50;;;9.30;99.00;;;;;;2081833;28;20021;-64
2021/04/23 00:09:33;;;;;;;17.33;4.47;;;9.30;99.10;;;;;;2087448;28;20535;-64
2021/04/23 00:10:34;;;;;;;16.33;4.45;;;9.20;98.90;;;;;;2087019;28;20025;-64
2021/04/23 00:11:39;;;;;;;15.80;4.38;;;9.20;98.90;;;;;;2087223;28;20029;-63
2021/04/23 00:12:40;;;;;;;16.55;3.83;;;9.20;99.00;;;;;;2086523;28;20121;-64
2021/04/23 00:13:41;;;;;;;15.15;3.97;;;9.20;99.00;;;;;;2074398;28;20022;-64
2021/04/23 00:14:46;;;;;;;16.58;4.68;;;9.10;99.10;;;;;;2073326;28;20029;-64
2021/04/23 00:15:47;;;;;;;17.23;4.50;;;9.10;99.30;;;;;;2080370;28;20025;-64
2021/04/23 00:16:48;;;;;;;21.33;4.65;;;9.00;99.30;;;;;;2081751;28;20477;-64
2021/04/23 00:17:49;;;;;;;15.23;4.28;;;8.90;99.40;;;;;;2077578;28;20033;-64
2021/04/23 00:18:50;;;;;;;14.32;3.75;;;8.80;99.40;;;;;;2074388;28;20042;-64
2021/04/23 00:19:51;;;;;;;18.85;4.57;;;8.80;99.70;;;;;;2073566;28;20025;-64
2021/04/23 00:20:52;;;;;;;20.50;4.10;;;8.70;99.90;;;;;;2080251;28;20044;-64
2021/04/23 00:21:54;;;;;;;19.02;4.10;;;8.60;99.90;;;;;;2081674;28;20397;-64
2021/04/23 00:23:04;;;;;;;14.45;4.15;;;8.50;99.90;;;;;;2081085;28;20393;-64
2021/04/23 00:24:05;;;;;;;15.23;4.13;;;8.40;99.90;;;;;;2079017;28;20441;-64
2021/04/23 00:25:07;;;;;;;15.70;4.57;;;8.30;99.90;;;;;;2084944;28;20188;-64
2021/04/23 00:26:08;;;;;;;11.15;3.70;;;8.20;99.90;;;;;;2077987;28;20021;-64
2021/04/23 00:27:09;;;;;;;17.63;4.22;;;8.20;99.90;;;;;;2076150;28;20070;-65
2021/04/23 00:28:12;;;;;;;14.93;4.45;;;8.10;99.90;;;;;;2081669;28;20017;-64
2021/04/23 00:29:13;;;;;;;12.70;4.22;;;8.00;99.90;;;;;;2078645;28;20025;-64
2021/04/23 00:30:15;;;;;;;15.18;4.20;;;7.90;99.90;;;;;;2064588;28;20105;-64
2021/04/23 00:31:15;;;;;;;11.07;4.18;;;7.80;99.90;;;;;;2087891;28;20104;-64
2021/04/23 00:33:36;;;;;;;15.07;4.85;;;7.60;99.90;;;;;;2073056;28;20033;-64
2021/04/23 00:34:37;;;;;;;;;;;7.50;99.90;;;;;;2080204;28;20053;-64
2021/04/23 00:35:41;;;;;;;15.98;3.60;;;7.40;99.90;;;;;;2073247;28;19912;-64
2021/04/23 00:36:42;;;;;;;16.77;3.90;;;7.40;99.90;;;;;;2080407;28;20036;-64
2021/04/23 00:37:47;;;;;;;12.57;4.03;;;7.30;99.90;;;;;;2078926;28;20023;-64
2021/04/23 00:38:47;;;;;;;16.15;4.13;;;7.20;99.90;;;;;;2078655;28;20030;-64
2021/04/23 00:39:48;;;;;;;16.40;3.72;;;7.10;99.90;;;;;;2072420;28;20665;-64
2021/04/23 00:41:11;;;;;;;18.52;4.38;;;7.10;99.90;;;;;;2072470;28;20641;-64
2021/04/23 00:42:11;;;;;;;13.90;4.03;;;7.00;99.90;;;;;;2072624;28;20034;-64
2021/04/23 00:43:12;;;;;;;19.65;4.10;;;7.00;99.90;;;;;;2077999;28;20100;-64
2021/04/23 00:44:13;;;;;;;14.98;4.70;;;6.90;99.90;;;;;;2081449;28;20088;-65
2021/04/23 00:45:17;;;;;;;14.95;3.97;;;6.90;99.90;;;;;;2080776;28;20112;-64
2021/04/23 00:46:17;;;;;;;13.77;4.35;;;6.80;99.90;;;;;;2080736;28;20104;-64
2021/04/23 00:47:18;;;;;;;18.33;4.30;;;6.80;99.90;;;;;;2087598;28;20049;-64
2021/04/23 00:48:20;;;;;;;19.13;4.53;;;6.70;99.90;;;;;;2074609;28;20022;-64
2021/04/23 00:49:21;;;;;;;15.15;4.70;;;6.70;99.90;;;;;;2073472;28;20032;-64
2021/04/23 00:50:41;;;;;;;20.02;5.10;;;6.70;99.90;;;;;;2073571;28;20036;-64
2021/04/23 00:51:53;;;;;;;14.30;4.43;;;6.70;99.90;;;;;;2085895;28;20025;-64
2021/04/23 00:52:54;;;;;;;14.43;4.45;;;6.60;99.90;;;;;;2088328;28;20021;-64
2021/04/23 00:53:55;;;;;;;15.07;4.57;;;6.50;99.90;;;;;;2081818;28;20029;-64
2021/04/23 00:54:56;;;;;;;13.52;4.15;;;6.50;99.90;;;;;;2081728;28;20677;-64
2021/04/23 00:56:00;;;;;;;15.68;4.45;;;6.40;99.90;;;;;;2087719;28;20104;-64
2021/04/23 00:57:01;;;;;;;17.02;4.20;;;6.40;99.90;;;;;;2073595;28;20405;-64
2021/04/23 00:58:02;;;;;;;15.13;4.15;;;6.40;99.90;;;;;;2073820;28;20037;-64
2021/04/23 00:59:05;;;;;;;13.90;3.83;;;6.30;99.90;;;;;;2074540;28;20478;-64
2021/04/23 01:00:07;;;;;;;12.65;4.07;;;6.30;99.90;;;;;;2074335;28;20045;-64
2021/04/23 01:01:16;;;;;;;17.70;4.45;;;6.20;99.90;;;;;;2077233;28;20045;-64
2021/04/23 01:02:17;;;;;;;12.65;4.28;;;6.20;99.90;;;;;;2088158;28;20696;-63
2021/04/23 01:03:20;;;;;;;16.45;4.72;;;6.10;99.90;;;;;;2086382;28;20021;-64
2021/04/23 01:04:22;;;;;;;16.08;4.35;;;6.20;99.90;;;;;;2070832;28;20551;-64
2021/04/23 01:05:32;;;;;;;13.48;4.13;;;6.10;99.90;;;;;;2078375;28;20088;-64
2021/04/23 01:06:34;;;;;;;16.83;5.00;;;6.10;99.90;;;;;;2073045;28;20061;-65
2021/04/23 01:07:40;;;;;;;16.92;3.83;;;6.00;99.90;;;;;;2073337;28;20034;-64
2021/04/23 01:08:42;;;;;;;13.80;4.50;;;6.00;99.90;;;;;;2077632;28;20021;-64
2021/04/23 01:09:43;;;;;;;;;;;5.90;99.90;;;;;;2082092;28;20129;-64
2021/04/23 01:10:44;;;;;;;16.52;4.30;;;5.90;99.90;;;;;;2080587;28;20022;-64
2021/04/23 01:11:46;;;;;;;16.40;5.03;;;5.90;99.90;;;;;;2066726;28;20578;-64
2021/04/23 01:12:47;;;;;;;18.08;4.95;;;5.80;99.90;;;;;;2080895;28;20030;-64
2021/04/23 01:13:48;;;;;;;12.95;3.80;;;5.80;99.90;;;;;;2080985;28;20041;-64
2021/04/23 01:14:49;;;;;;;14.57;4.35;;;5.80;99.90;;;;;;2081538;28;20108;-64
2021/04/23 01:15:50;;;;;;;15.90;4.80;;;5.80;99.90;;;;;;2080455;28;20052;-64
2021/04/23 01:16:51;;;;;;;11.35;4.55;;;5.80;99.90;;;;;;2072286;28;20510;-64
2021/04/23 01:17:52;;;;;;;14.25;4.47;;;5.70;99.90;;;;;;2072388;28;20521;-64
2021/04/23 01:18:54;;;;;;;15.63;4.72;;;5.70;99.90;;;;;;2080516;28;20487;-64
2021/04/23 01:19:55;;;;;;;16.02;4.82;;;5.70;99.90;;;;;;2080915;28;20079;-64
2021/04/23 01:21:07;;;;;;;15.23;4.25;;;5.70;99.90;;;;;;2079299;28;20120;-63
2021/04/23 01:22:08;;;;;;;16.08;4.75;;;5.70;99.90;;;;;;2081142;28;20404;-64
2021/04/23 01:23:08;;;;;;;15.77;4.82;;;5.70;99.90;;;;;;2073070;28;20033;-64
2021/04/23 01:24:11;;;;;;;15.77;4.82;;;5.70;99.90;;;;;;2079002;28;20045;-64
2021/04/23 01:25:13;;;;;;;24.42;5.32;;;5.80;99.90;;;;;;2079538;28;20580;-64
2021/04/23 01:26:17;;;;;;;22.65;5.10;;;5.80;99.90;;;;;;2080704;28;20009;-64
2021/04/23 01:27:18;;;;;;;14.40;3.88;;;5.70;99.90;;;;;;2080310;28;20037;-64
2021/04/23 01:28:18;;;;;;;20.13;5.05;;;5.80;99.90;;;;;;2080719;28;20570;-64
2021/04/23 01:29:21;;;;;;;17.65;4.95;;;5.80;99.90;;;;;;2078654;28;20759;-64
2021/04/23 01:30:23;;;;;;;20.25;4.78;;;5.80;99.90;;;;;;2073901;28;20382;-64
2021/04/23 01:31:28;;;;;;;21.17;4.63;;;5.80;99.90;;;;;;2079968;28;20021;-64
2021/04/23 01:32:29;;;;;;;19.38;4.93;;;5.80;99.90;;;;;;2076701;28;20021;-64
2021/04/23 01:33:30;;;;;;;15.63;4.18;;;5.80;99.90;;;;;;2072304;28;20378;-64
2021/04/23 01:34:37;;;;;;;16.20;4.75;;;5.70;99.90;;;;;;2079010;28;20025;-64
2021/04/23 01:35:38;;;;;;;17.17;4.78;;;5.70;99.90;;;;;;2073083;28;20030;-64
2021/04/23 01:36:40;;;;;;;16.63;5.10;;;5.60;99.90;;;;;;2081093;28;20021;-63
2021/04/23 01:37:41;;;;;;;11.70;4.40;;;5.60;99.90;;;;;;2081080;28;20049;-64
2021/04/23 01:38:47;;;;;;;15.98;4.25;;;5.60;99.90;;;;;;2076647;28;20059;-64
2021/04/23 01:39:48;;;;;;;20.17;4.68;;;5.60;99.90;;;;;;2072695;28;20025;-64
2021/04/23 01:40:49;;;;;;;18.50;4.90;;;5.60;99.90;;;;;;2072193;28;20665;-64
2021/04/23 01:41:51;;;;;;;15.57;4.57;;;5.60;99.90;;;;;;2080073;28;20061;-64
2021/04/23 01:42:52;;;;;;;16.98;5.05;;;5.60;99.90;;;;;;2081179;28;20108;-64
2021/04/23 01:43:52;;;;;;;15.00;4.50;;;5.60;99.90;;;;;;2081327;28;20018;-63
2021/04/23 01:44:57;;;;;;;18.17;4.78;;;5.60;99.90;;;;;;2077363;28;20022;-64
2021/04/23 01:45:58;;;;;;;14.60;4.90;;;5.60;99.90;;;;;;2077956;28;20086;-63
2021/04/23 01:46:59;;;;;;;17.30;4.93;;;5.60;99.90;;;;;;2079402;28;20018;-64
2021/04/23 01:48:00;;;;;;;15.93;4.70;;;5.60;99.90;;;;;;2075088;28;20026;-64
2021/04/23 01:49:09;;;;;;;11.77;4.60;;;5.60;99.90;;;;;;2074497;28;20271;-64
2021/04/23 01:50:15;;;;;;;18.17;4.40;;;5.50;99.90;;;;;;2078246;28;20032;-63
2021/04/23 01:51:16;;;;;;;14.13;3.97;;;5.50;99.90;;;;;;2074636;28;20052;-64
2021/04/23 01:52:18;;;;;;;13.45;4.65;;;5.40;99.90;;;;;;2081118;28;20637;-64
2021/04/23 01:53:19;;;;;;;20.95;4.93;;;5.50;99.90;;;;;;2080986;28;20362;-63
2021/04/23 01:54:20;;;;;;;13.60;4.75;;;5.40;99.90;;;;;;2081124;28;20452;-65
2021/04/23 01:55:22;;;;;;;20.33;4.78;;;5.40;99.90;;;;;;2082618;28;20030;-64
2021/04/23 01:56:23;;;;;;;20.20;5.18;;;5.40;99.90;;;;;;2085521;28;20033;-63
2021/04/23 01:57:24;;;;;;;21.67;5.22;;;5.40;99.90;;;;;;2081465;28;20034;-63
2021/04/23 01:58:25;;;;;;;21.65;5.22;;;5.40;99.90;;;;;;2077340;28;20453;-64
2021/04/23 01:59:27;;;;;;;21.45;4.90;;;5.40;99.90;;;;;;2080433;28;20405;-64
2021/04/23 02:00:31;;;;;;;17.90;5.00;;;5.40;99.90;;;;;;2079584;28;20068;-63
2021/04/23 02:01:33;;;;;;;17.02;4.57;;;5.40;99.90;;;;;;2080658;28;20032;-64
2021/04/23 02:02:34;;;;;;;18.17;4.95;;;5.40;99.90;;;;;;2080902;28;20025;-63
2021/04/23 02:03:37;;;;;;;15.73;6.95;;;5.30;99.90;;;;;;2079958;28;20603;-63
2021/04/23 02:04:37;;;;;;;29.85;11.80;;;5.40;99.90;;;;;;2077956;28;20024;-63
2021/04/23 02:05:40;;;;;;;22.45;8.93;;;5.30;99.90;;;;;;2074336;28;20018;-63
2021/04/23 02:06:42;;;;;;;27.77;8.63;;;5.30;99.90;;;;;;2073369;28;20026;-64
2021/04/23 02:07:43;;;;;;;19.35;7.82;;;5.30;99.90;;;;;;2072579;28;20474;-63
2021/04/23 02:08:44;;;;;;;22.08;6.25;;;5.30;99.90;;;;;;2076027;28;20117;-63
2021/04/23 02:09:45;;;;;;;21.85;6.50;;;5.20;99.90;;;;;;2080864;28;20044;-64
2021/04/23 02:10:52;;;;;;;16.48;5.63;;;5.20;99.90;;;;;;2080034;28;20056;-64
2021/04/23 02:11:53;;;;;;;17.60;4.95;;;5.20;99.90;;;;;;2080261;28;20436;-64
2021/04/23 02:12:54;;;;;;;15.52;5.03;;;5.20;99.90;;;;;;2080853;28;20100;-63
2021/04/23 02:13:58;;;;;;;15.02;5.15;;;5.20;99.90;;;;;;2080784;28;20033;-64
2021/04/23 02:14:58;;;;;;;18.02;4.80;;;5.20;99.90;;;;;;2080026;28;20026;-63
2021/04/23 02:15:59;;;;;;;13.68;4.68;;;5.20;99.90;;;;;;2078030;28;20025;-64
2021/04/23 02:17:00;;;;;;;17.50;5.55;;;5.20;99.90;;;;;;2075592;28;20029;-64
2021/04/23 02:18:01;;;;;;;19.58;4.68;;;5.20;99.90;;;;;;2080611;28;20029;-63
2021/04/23 02:19:05;;;;;;;18.27;4.70;;;5.20;99.90;;;;;;2080850;28;20030;-63
2021/04/23 02:20:10;;;;;;;14.82;4.88;;;5.20;99.90;;;;;;2080866;28;20029;-63
2021/04/23 02:21:11;;;;;;;21.88;5.75;;;5.20;99.90;;;;;;2080668;28;20048;-63
2021/04/23 02:22:12;;;;;;;14.82;5.15;;;5.20;99.90;;;;;;2080568;28;20104;-64
2021/04/23 02:23:13;;;;;;;17.05;5.60;;;5.20;99.90;;;;;;2080857;28;20014;-64
2021/04/23 02:24:15;;;;;;;15.90;4.90;;;5.20;99.90;;;;;;2075269;28;20022;-64
2021/04/23 02:25:18;;;;;;;14.05;5.35;;;5.20;99.90;;;;;;2073552;28;20040;-64
2021/04/23 02:26:21;;;;;;;16.27;4.95;;;5.20;99.90;;;;;;2076549;28;20060;-64
2021/04/23 02:27:21;;;;;;;17.58;5.97;;;5.20;99.90;;;;;;2076725;28;20021;-63
2021/04/23 02:28:22;;;;;;;16.85;5.15;;;5.10;99.90;;;;;;2080699;28;20018;-63
2021/04/23 02:29:23;;;;;;;16.13;5.07;;;5.10;99.90;;;;;;2080581;28;20144;-64
2021/04/23 02:30:31;;;;;;;13.50;5.38;;;5.10;99.90;;;;;;2079036;28;20034;-64
2021/04/23 02:31:31;;;;;;;13.20;5.30;;;5.00;99.90;;;;;;2080487;28;20688;-63
2021/04/23 02:32:32;;;;;;;15.65;5.30;;;5.00;99.90;;;;;;2078386;28;20108;-63
2021/04/23 02:33:34;;;;;;;16.85;5.28;;;5.00;99.90;;;;;;2072616;28;20417;-63
2021/04/23 02:34:35;;;;;;;15.20;5.68;;;4.90;99.90;;;;;;2071600;28;20029;-63
2021/04/23 02:35:35;;;;;;;15.45;5.20;;;4.90;99.90;;;;;;2079647;28;20874;-63
2021/04/23 02:36:36;;;;;;;17.10;6.35;;;4.90;99.90;;;;;;2076132;28;20066;-64
2021/04/23 02:37:38;;;;;;;16.17;4.93;;;4.80;99.90;;;;;;2072368;28;20026;-64
2021/04/23 02:38:39;;;;;;;16.75;6.15;;;4.80;99.90;;;;;;2078250;28;20021;-63
2021/04/23 02:39:40;;;;;;;21.23;6.47;;;4.80;99.90;;;;;;2073595;28;20022;-63
2021/04/23 02:40:41;;;;;;;13.90;5.20;;;4.80;99.90;;;;;;2072262;28;20024;-64
2021/04/23 02:41:44;;;;;;;18.33;5.60;;;4.70;99.90;;;;;;2078536;28;20519;-64
2021/04/23 02:42:48;;;;;;;20.85;5.72;;;4.70;99.90;;;;;;2080535;28;20026;-64
2021/04/23 02:43:52;;;;;;;19.77;6.82;;;4.70;99.90;;;;;;2080344;28;20045;-64
2021/04/23 02:44:52;;;;;;;21.23;6.05;;;4.60;99.90;;;;;;2077856;28;20492;-64
2021/04/23 02:45:54;;;;;;;23.02;5.90;;;4.60;99.90;;;;;;2080293;28;20057;-64
2021/04/23 02:46:55;;;;;;;18.50;5.85;;;4.60;99.90;;;;;;2079847;28;20041;-63
2021/04/23 02:47:56;;;;;;;23.05;5.63;;;4.50;99.90;;;;;;2079886;28;20694;-64
2021/04/23 02:48:57;;;;;;;18.63;5.50;;;4.40;99.90;;;;;;2079990;28;20044;-64
2021/04/23 02:49:58;;;;;;;15.98;5.80;;;4.40;99.90;;;;;;2079781;28;20025;-63
2021/04/23 02:51:06;;;;;;;18.48;5.95;;;4.40;99.90;;;;;;2080579;28;20483;-63
2021/04/23 02:52:07;;;;;;;12.23;5.05;;;4.30;99.90;;;;;;2080291;28;20032;-63
2021/04/23 02:53:09;;;;;;;17.67;5.47;;;4.30;99.90;;;;;;2079892;28;20435;-63
2021/04/23 02:54:10;;;;;;;23.40;6.18;;;4.30;99.90;;;;;;2078676;28;20030;-64
2021/04/23 02:55:12;;;;;;;21.13;5.82;;;4.30;99.90;;;;;;2076898;28;20033;-64
2021/04/23 02:56:14;;;;;;;19.48;6.85;;;4.30;99.90;;;;;;2088024;28;20103;-64
2021/04/23 02:57:16;;;;;;;16.13;6.03;;;4.30;99.90;;;;;;2072508;28;20032;-63
2021/04/23 02:58:19;;;;;;;14.10;5.07;;;4.30;99.90;;;;;;2078376;28;20112;-64
2021/04/23 02:59:20;;;;;;;16.90;5.85;;;4.30;99.90;;;;;;2072723;28;20030;-64
2021/04/23 03:00:25;;;;;;;17.98;5.70;;;4.30;99.90;;;;;;2078082;28;20057;-63
2021/04/23 03:01:31;;;;;;;18.95;6.22;;;4.30;99.90;;;;;;2080116;28;20635;-63
2021/04/23 03:02:32;;;;;;;17.55;5.82;;;4.30;99.90;;;;;;2080334;28;20505;-64
2021/04/23 03:03:33;;;;;;;15.80;5.90;;;4.30;99.90;;;;;;2080540;28;20109;-63
2021/04/23 03:04:34;;;;;;;18.30;5.72;;;4.30;99.90;;;;;;2079163;28;20121;-63
2021/04/23 03:05:36;;;;;;;21.90;6.18;;;4.30;99.90;;;;;;2077882;28;20042;-64
2021/04/23 03:06:37;;;;;;;22.27;6.15;;;4.30;99.90;;;;;;2079746;28;20099;-64
2021/04/23 03:07:37;;;;;;;19.67;5.75;;;4.30;99.90;;;;;;2080077;28;20030;-63
2021/04/23 03:08:39;;;;;;;20.08;6.03;;;4.30;99.90;;;;;;2074401;28;20025;-64
2021/04/23 03:09:39;;;;;;;16.98;5.45;;;4.30;99.90;;;;;;2072360;28;20379;-63
2021/04/23 03:10:45;;;;;;;14.55;5.47;;;4.30;99.90;;;;;;2072928;28;20034;-64
2021/04/23 03:11:46;;;;;;;11.90;5.55;;;4.30;99.90;;;;;;2074921;28;20148;-63
2021/04/23 03:12:46;;;;;;;16.95;6.05;;;4.30;99.90;;;;;;2080306;28;20021;-64
2021/04/23 03:13:54;;;;;;;18.60;6.05;;;4.30;99.90;;;;;;2075745;28;20123;-63
2021/04/23 03:14:54;;;;;;;18.83;5.45;;;4.30;99.90;;;;;;2072378;28;20134;-63
2021/04/23 03:15:56;;;;;;;14.02;5.30;;;4.30;99.90;;;;;;2080255;28;20109;-64
2021/04/23 03:16:57;;;;;;;;;;;4.30;99.90;;;;;;2077640;28;20025;-64
2021/04/23 03:17:58;;;;;;;19.88;5.38;;;4.30;99.90;;;;;;2077778;28;19912;-63
2021/04/23 03:18:58;;;;;;;18.45;5.53;;;4.30;99.90;;;;;;2079410;28;20096;-63
2021/04/23 03:19:59;;;;;;;18.65;5.93;;;4.30;99.90;;;;;;2072434;28;20030;-64
2021/04/23 03:21:02;;;;;;;19.30;5.90;;;4.30;99.90;;;;;;2079307;28;20087;-63
2021/04/23 03:22:02;;;;;;;17.80;5.85;;;4.30;99.90;;;;;;2079489;28;20063;-64
2021/04/23 03:23:04;;;;;;;21.17;5.75;;;4.20;99.90;;;;;;2080134;28;20735;-64
2021/04/23 03:24:06;;;;;;;19.77;5.40;;;4.20;99.90;;;;;;2080265;28;20063;-64
2021/04/23 03:25:08;;;;;;;14.63;5.20;;;4.20;99.90;;;;;;2079552;28;20260;-64
2021/04/23 03:26:10;;;;;;;15.18;5.60;;;4.00;99.90;;;;;;2079260;28;20029;-63
2021/04/23 03:27:11;;;;;;;15.13;5.53;;;4.00;99.90;;;;;;2079632;28;20156;-63
2021/04/23 03:28:12;;;;;;;16.08;5.30;;;4.00;99.90;;;;;;2080368;28;20397;-63
2021/04/23 03:29:15;;;;;;;14.68;5.28;;;4.00;99.90;;;;;;2075146;28;20382;-63
2021/04/23 03:30:21;;;;;;;22.08;6.07;;;4.00;99.90;;;;;;2079899;28;20117;-63
2021/04/23 03:31:22;;;;;;;14.85;5.60;;;3.90;99.90;;;;;;2072137;28;20010;-64
2021/04/23 03:32:23;;;;;;;20.75;5.57;;;3.80;99.90;;;;;;2074924;28;20398;-64
2021/04/23 03:33:24;;;;;;;16.30;6.20;;;3.80;99.90;;;;;;2071720;28;20371;-64
2021/04/23 03:34:25;;;;;;;13.85;5.60;;;3.80;99.90;;;;;;2074494;28;20045;-63
2021/04/23 03:35:27;;;;;;;15.48;5.65;;;3.80;99.90;;;;;;2076539;28;20101;-63
2021/04/23 03:36:28;;;;;;;14.90;5.80;;;3.70;99.90;;;;;;2080142;28;20484;-64
2021/04/23 03:37:28;;;;;;;19.02;5.90;;;3.70;99.90;;;;;;2075720;28;20024;-63
2021/04/23 03:38:30;;;;;;;17.20;6.15;;;3.70;99.90;;;;;;2079559;28;20024;-63
2021/04/23 03:39:31;;;;;;;16.35;5.40;;;3.70;99.90;;;;;;2080257;28;20496;-64
2021/04/23 03:40:32;;;;;;;19.42;5.70;;;3.70;99.90;;;;;;2080013;28;20037;-63
2021/04/23 03:41:33;;;;;;;16.23;5.88;;;3.70;99.90;;;;;;2080058;28;20029;-63
2021/04/23 03:42:34;;;;;;;16.10;5.60;;;3.70;99.90;;;;;;2080471;28;20469;-63
2021/04/23 03:43:36;;;;;;;18.35;5.75;;;3.80;99.90;;;;;;2079070;28;20493;-64
2021/04/23 03:44:37;;;;;;;13.82;6.10;;;3.80;99.90;;;;;;2074321;28;20053;-63
2021/04/23 03:45:39;;;;;;;19.27;6.47;;;3.80;99.90;;;;;;2071934;28;20029;-63
2021/04/23 03:46:39;;;;;;;18.85;5.95;;;3.80;99.90;;;;;;2079410;28;20032;-64
2021/04/23 03:47:40;;;;;;;13.48;5.18;;;3.80;99.90;;;;;;2079664;28;20028;-64
2021/04/23 03:48:43;;;;;;;14.43;5.32;;;3.90;99.90;;;;;;2080857;28;20048;-63
2021/04/23 03:49:44;;;;;;;16.15;5.40;;;3.90;99.90;;;;;;2081845;28;20105;-64
2021/04/23 03:50:46;;;;;;;19.05;5.50;;;3.90;99.90;;;;;;2081507;28;20018;-63
2021/04/23 03:51:46;;;;;;;;;;;3.90;99.90;;;;;;2081571;28;20041;-63
2021/04/23 03:52:48;;;;;;;12.68;5.50;;;3.90;99.90;;;;;;2079497;28;20529;-63
2021/04/23 03:53:49;;;;;;;11.80;5.20;;;3.90;99.90;;;;;;2074058;28;20049;-63
2021/04/23 03:54:50;;;;;;;16.58;5.43;;;3.90;99.90;;;;;;2075893;28;20026;-63
2021/04/23 03:55:53;;;;;;;17.05;6.15;;;3.90;99.90;;;;;;2084629;28;20456;-63
2021/04/23 03:56:54;;;;;;;15.45;5.50;;;3.80;99.90;;;;;;2081860;28;20021;-63
2021/04/23 03:57:56;;;;;;;18.42;5.72;;;3.80;99.90;;;;;;2080417;28;20037;-63
2021/04/23 03:58:57;;;;;;;21.48;5.90;;;3.80;99.90;;;;;;2081198;28;20029;-63
2021/04/23 03:59:58;;;;;;;17.05;5.97;;;3.70;99.90;;;;;;2081406;28;20108;-64
2021/04/23 04:01:12;;;;;;;18.60;6.07;;;3.70;99.90;;;;;;2081395;28;20025;-63
2021/04/23 04:02:13;;;;;;;23.38;6.00;;;3.70;99.90;;;;;;2081260;28;20103;-64
2021/04/23 04:03:14;;;;;;;22.02;6.55;;;3.60;99.90;;;;;;2081525;28;20100;-63
2021/04/23 04:04:15;;;;;;;16.30;5.40;;;3.60;99.90;;;;;;2081643;28;20747;-63
2021/04/23 04:05:16;;;;;;;20.17;6.00;;;3.60;99.90;;;;;;2081597;28;20295;-63
2021/04/23 04:06:17;;;;;;;21.85;6.85;;;3.60;99.90;;;;;;2081807;28;20021;-63
2021/04/23 04:07:17;;;;;;;13.27;5.30;;;3.50;99.90;;;;;;2074016;28;20073;-64
2021/04/23 04:08:18;;;;;;;21.35;5.63;;;3.50;99.90;;;;;;2065803;28;20589;-63
2021/04/23 04:09:19;;;;;;;15.98;5.95;;;3.40;99.90;;;;;;2075775;28;20085;-63
2021/04/23 04:10:20;;;;;;;14.73;5.90;;;3.40;99.90;;;;;;2077450;28;20394;-63
2021/04/23 04:11:21;;;;;;;18.60;5.85;;;3.40;99.90;;;;;;2081715;28;20014;-63
2021/04/23 04:12:21;;;;;;;20.33;6.07;;;3.40;99.90;;;;;;2073573;28;20037;-64
2021/04/23 04:13:23;;;;;;;23.33;5.60;;;3.40;99.90;;;;;;2073892;28;20795;-64
2021/04/23 04:14:23;;;;;;;12.52;6.00;;;3.30;99.90;;;;;;2076952;28;20394;-63
2021/04/23 04:15:25;;;;;;;18.20;6.35;;;3.30;99.90;;;;;;2076950;28;20029;-64
2021/04/23 04:16:26;;;;;;;41.33;7.15;;;3.30;99.90;;;;;;2081396;28;20044;-63
2021/04/23 04:17:27;;;;;;;55.30;7.25;;;3.40;99.90;;;;;;2081318;28;20107;-64
2021/04/23 04:18:28;;;;;;;29.75;7.07;;;3.40;99.90;;;;;;2081535;28;20029;-63
2021/04/23 04:19:29;;;;;;;36.45;7.25;;;3.40;99.90;;;;;;2077752;28;20064;-63
2021/04/23 04:20:32;;;;;;;31.60;7.30;;;3.40;99.90;;;;;;2076658;28;20033;-63
2021/04/23 04:21:34;;;;;;;28.05;7.20;;;3.40;99.90;;;;;;2072899;28;20048;-63
2021/04/23 04:22:34;;;;;;;23.17;6.93;;;3.50;99.90;;;;;;2080299;28;20033;-63
2021/04/23 04:23:35;;;;;;;26.60;6.85;;;3.50;99.90;;;;;;2079438;28;20033;-63
2021/04/23 04:24:36;;;;;;;26.85;6.57;;;3.50;99.90;;;;;;2077308;28;20057;-63
2021/04/23 04:25:38;;;;;;;19.48;6.55;;;3.50;99.90;;;;;;2077107;28;20037;-63
2021/04/23 04:26:39;;;;;;;22.02;6.00;;;3.50;99.90;;;;;;2081629;28;20018;-63
2021/04/23 04:27:40;;;;;;;25.20;5.95;;;3.50;99.90;;;;;;2081469;28;20024;-63
2021/04/23 04:28:41;;;;;;;16.50;5.60;;;3.50;99.90;;;;;;2080668;28;20029;-63
2021/04/23 04:29:42;;;;;;;22.75;7.50;;;3.40;99.90;;;;;;2080986;28;20151;-64
2021/04/23 04:30:43;;;;;;;24.50;5.95;;;3.40;99.90;;;;;;2081608;28;20117;-64
2021/04/23 04:31:44;;;;;;;22.33;6.95;;;3.30;99.90;;;;;;2072387;28;20033;-63
2021/04/23 04:32:45;;;;;;;25.75;6.10;;;3.30;99.90;;;;;;2079077;28;20022;-63
2021/04/23 04:33:46;;;;;;;20.40;6.05;;;3.30;99.90;;;;;;2073720;28;20018;-64
2021/04/23 04:34:48;;;;;;;14.93;5.50;;;3.30;99.90;;;;;;2077935;28;20029;-63
2021/04/23 04:35:49;;;;;;;20.00;5.88;;;3.30;99.90;;;;;;2075741;28;20101;-63
2021/04/23 04:36:50;;;;;;;18.05;5.70;;;3.20;99.90;;;;;;2077124;28;20018;-64
2021/04/23 04:37:51;;;;;;;16.92;5.72;;;3.20;99.90;;;;;;2075577;28;20076;-63
2021/04/23 04:38:51;;;;;;;15.82;6.13;;;3.30;99.90;;;;;;2081623;28;20455;-64
2021/04/23 04:39:52;;;;;;;19.15;6.40;;;3.20;99.90;;;;;;2081095;28;20022;-63
2021/04/23 04:40:53;;;;;;;20.98;5.93;;;3.20;99.90;;;;;;2080923;28;20520;-64
2021/04/23 04:41:54;;;;;;;20.90;6.30;;;3.20;99.90;;;;;;2080846;28;20425;-64
2021/04/23 04:42:55;;;;;;;18.00;6.00;;;3.20;99.90;;;;;;2079000;28;20418;-64
2021/04/23 04:43:56;;;;;;;25.77;5.88;;;3.10;99.90;;;;;;2073257;28;20060;-63
2021/04/23 04:45:01;;;;;;;15.35;5.82;;;3.10;99.90;;;;;;2076199;28;20032;-64
2021/04/23 04:46:01;;;;;;;22.80;6.15;;;3.10;99.90;;;;;;2072548;28;20018;-64
2021/04/23 04:47:03;;;;;;;24.95;7.38;;;3.10;99.90;;;;;;2074957;28;20452;-64
2021/04/23 04:48:05;;;;;;;15.98;5.53;;;3.10;99.90;;;;;;2080534;28;20084;-64
2021/04/23 04:49:06;;;;;;;21.55;6.95;;;3.10;99.90;;;;;;2080529;28;20086;-64
2021/04/23 04:50:27;;;;;;;12.82;5.53;;;3.20;99.90;;;;;;2078867;28;20512;-64
2021/04/23 04:51:28;;;;;;;13.82;5.70;;;3.20;99.90;;;;;;2081496;28;20420;-63
2021/04/23 04:52:29;;;;;;;19.27;6.32;;;3.20;99.90;;;;;;2080520;28;20064;-64
2021/04/23 04:53:30;;;;;;;18.20;5.72;;;3.20;99.90;;;;;;2078060;28;20017;-63
2021/04/23 04:54:31;;;;;;;18.13;5.32;;;3.20;99.90;;;;;;2068865;28;20029;-64
2021/04/23 04:55:38;;;;;;;17.67;5.88;;;3.20;99.90;;;;;;2079763;28;20555;-63
2021/04/23 04:56:38;;;;;;;17.85;6.78;;;3.30;99.90;;;;;;2074878;28;20387;-64
2021/04/23 04:57:39;;;;;;;17.92;7.53;;;3.30;99.90;;;;;;2072654;28;20060;-63
2021/04/23 04:58:41;;;;;;;16.77;6.15;;;3.30;99.90;;;;;;2078470;28;20026;-65
2021/04/23 04:59:44;;;;;;;21.88;7.05;;;3.30;99.90;;;;;;2080625;28;20021;-63
2021/04/23 05:00:46;;;;;;;14.43;5.80;;;3.30;99.90;;;;;;2073098;28;20026;-64
2021/04/23 05:01:46;;;;;;;22.80;6.50;;;3.40;99.90;;;;;;2072599;28;20050;-64
2021/04/23 05:02:47;;;;;;;13.07;6.00;;;3.40;99.90;;;;;;2073220;28;20056;-64
2021/04/23 05:03:48;;;;;;;22.45;6.10;;;3.40;99.90;;;;;;2077167;28;20068;-64
2021/04/23 05:04:49;;;;;;;17.25;5.90;;;3.30;99.90;;;;;;2080306;28;20065;-64
2021/04/23 05:05:50;;;;;;;18.25;5.75;;;3.30;99.90;;;;;;2073062;28;20049;-64
2021/04/23 05:06:50;;;;;;;16.58;6.25;;;3.30;99.90;;;;;;2072863;28;20014;-65
2021/04/23 05:07:52;;;;;;;24.42;6.68;;;3.30;99.90;;;;;;2073333;28;20022;-64
2021/04/23 05:08:53;;;;;;;17.25;6.63;;;3.30;99.90;;;;;;2072275;28;20049;-64
2021/04/23 05:09:54;;;;;;;16.02;5.80;;;3.30;99.90;;;;;;2072626;28;20486;-64
2021/04/23 05:10:54;;;;;;;22.83;6.60;;;3.30;99.90;;;;;;2073106;28;20037;-64
2021/04/23 05:11:55;;;;;;;19.42;7.00;;;3.30;99.90;;;;;;2073814;28;20026;-64
2021/04/23 05:12:57;;;;;;;29.40;6.85;;;3.30;99.90;;;;;;2072507;28;20057;-64
2021/04/23 05:13:58;;;;;;;20.70;6.05;;;3.30;99.90;;;;;;2078333;28;20021;-64
2021/04/23 05:14:59;;;;;;;18.27;6.50;;;3.30;99.90;;;;;;2077719;28;20030;-64
2021/04/23 05:15:59;;;;;;;13.10;6.25;;;3.40;99.90;;;;;;2074365;28;20034;-64
2021/04/23 05:17:00;;;;;;;19.60;7.10;;;3.40;99.90;;;;;;2072665;28;20108;-64
2021/04/23 05:18:01;;;;;;;23.52;6.90;;;3.40;99.90;;;;;;2072987;28;20029;-63
2021/04/23 05:19:02;;;;;;;16.45;6.50;;;3.40;99.90;;;;;;2071988;28;20118;-64
2021/04/23 05:20:07;;;;;;;19.67;7.70;;;3.40;99.90;;;;;;2071710;28;20029;-64
2021/04/23 05:21:08;;;;;;;22.17;7.25;;;3.40;99.90;;;;;;2072579;28;20034;-64
2021/04/23 05:22:08;;;;;;;13.38;6.35;;;3.40;99.90;;;;;;2072809;28;20105;-64
2021/04/23 05:23:09;;;;;;;25.02;6.15;;;3.40;99.90;;;;;;2073049;28;20105;-64
2021/04/23 05:24:10;;;;;;;24.02;6.88;;;3.40;99.90;;;;;;2072815;28;20016;-63
2021/04/23 05:25:14;;;;;;;24.77;7.55;;;3.40;99.90;;;;;;2072716;28;20044;-64